Terminal Aerodrome Forecast
Issued by NWS Des Moines, IA

Home | Current Version | Previous Version | Text Only | Print | Product List | Glossary On
Versions: 1 2 3 4 5 6 7 8 9 10 11 12 13 14 15 16 17 18 19 20 21 22 23 24 25 26 27 28 29 30 31 32 33
000
FTUS43 KDMX 240648 AAA
TAFDSM
TAF AMD
KDSM 240648Z 2407/2506 15006KT P6SM SCT060 BKN250
      TEMPO 2407/2409 4SM -TSRA SCT035 BKN060CB
     FM240900 20006KT P6SM VCTS BKN080CB
     FM241300 17007KT P6SM BKN040=

USA.gov is the U.S. government's official web portal to all federal, state and local government web resources and services.